sensor_id;sensor_type;location;lat;lon;timestamp;pressure;altitude;pressure_sealevel;temperature;humidity
57990;BME280;58373;51.824;5.564;2022-09-09T00:01:17;100700.06;;;15.02;90.05
57990;BME280;58373;51.824;5.564;2022-09-09T00:06:28;100700.38;;;14.99;90.26
57990;BME280;58373;51.824;5.564;2022-09-09T00:09:11;100699.06;;;14.95;89.40
57990;BME280;58373;51.824;5.564;2022-09-09T00:11:47;100697.78;;;14.99;89.14
57990;BME280;58373;51.824;5.564;2022-09-09T00:14:39;100686.59;;;14.80;90.08
57990;BME280;58373;51.824;5.564;2022-09-09T00:17:06;100694.47;;;14.88;89.37
57990;BME280;58373;51.824;5.564;2022-09-09T00:19:43;100690.22;;;14.87;89.93
57990;BME280;58373;51.824;5.564;2022-09-09T00:22:17;100689.88;;;14.82;89.55
57990;BME280;58373;51.824;5.564;2022-09-09T00:24:49;100685.97;;;14.86;89.02
57990;BME280;58373;51.824;5.564;2022-09-09T00:30:32;100683.66;;;14.83;89.26
57990;BME280;58373;51.824;5.564;2022-09-09T00:33:01;100680.97;;;14.67;89.04
57990;BME280;58373;51.824;5.564;2022-09-09T00:35:38;100677.09;;;14.71;89.26
57990;BME280;58373;51.824;5.564;2022-09-09T00:38:15;100680.66;;;14.70;89.00
57990;BME280;58373;51.824;5.564;2022-09-09T00:40:49;100670.53;;;14.67;89.08
57990;BME280;58373;51.824;5.564;2022-09-09T00:43:35;100670.22;;;14.70;89.17
57990;BME280;58373;51.824;5.564;2022-09-09T00:57:29;100669.47;;;14.52;88.96
57990;BME280;58373;51.824;5.564;2022-09-09T01:02:39;100665.16;;;14.43;88.45
57990;BME280;58373;51.824;5.564;2022-09-09T01:05:13;100655.38;;;14.45;88.94
57990;BME280;58373;51.824;5.564;2022-09-09T01:07:44;100659.91;;;14.34;88.98
57990;BME280;58373;51.824;5.564;2022-09-09T01:10:26;100664.13;;;14.35;89.41
57990;BME280;58373;51.824;5.564;2022-09-09T01:12:55;100667.66;;;14.26;89.23
57990;BME280;58373;51.824;5.564;2022-09-09T01:15:26;100649.25;;;14.28;89.57
57990;BME280;58373;51.824;5.564;2022-09-09T01:18:04;100656.91;;;14.29;88.99
57990;BME280;58373;51.824;5.564;2022-09-09T01:26:26;100658.84;;;14.27;88.56
57990;BME280;58373;51.824;5.564;2022-09-09T01:28:53;100656.72;;;14.23;88.73
57990;BME280;58373;51.824;5.564;2022-09-09T01:31:23;100657.81;;;14.20;88.44
57990;BME280;58373;51.824;5.564;2022-09-09T01:33:51;100649.84;;;13.96;89.58
57990;BME280;58373;51.824;5.564;2022-09-09T01:36:24;100649.13;;;14.12;88.73
57990;BME280;58373;51.824;5.564;2022-09-09T01:38:52;100643.72;;;14.05;88.73
57990;BME280;58373;51.824;5.564;2022-09-09T01:41:18;100650.84;;;14.03;89.02
57990;BME280;58373;51.824;5.564;2022-09-09T01:43:43;100646.47;;;14.03;89.19
57990;BME280;58373;51.824;5.564;2022-09-09T01:46:09;100651.38;;;14.06;88.96
57990;BME280;58373;51.824;5.564;2022-09-09T01:48:36;100653.41;;;13.95;89.30
57990;BME280;58373;51.824;5.564;2022-09-09T01:51:01;100644.63;;;13.96;89.37
57990;BME280;58373;51.824;5.564;2022-09-09T01:53:28;100659.94;;;13.99;89.63
57990;BME280;58373;51.824;5.564;2022-09-09T01:59:16;100655.34;;;13.93;89.83
57990;BME280;58373;51.824;5.564;2022-09-09T02:07:47;100636.13;;;13.94;89.50
57990;BME280;58373;51.824;5.564;2022-09-09T02:10:20;100630.59;;;13.97;88.89
57990;BME280;58373;51.824;5.564;2022-09-09T02:13:17;100636.56;;;14.07;88.60
57990;BME280;58373;51.824;5.564;2022-09-09T02:18:27;100626.59;;;13.85;89.19
57990;BME280;58373;51.824;5.564;2022-09-09T02:20:56;100630.06;;;13.93;88.85
57990;BME280;58373;51.824;5.564;2022-09-09T02:23:23;100631.50;;;13.88;89.07
57990;BME280;58373;51.824;5.564;2022-09-09T02:25:51;100635.78;;;13.89;89.01
57990;BME280;58373;51.824;5.564;2022-09-09T02:28:21;100627.94;;;13.89;88.84
57990;BME280;58373;51.824;5.564;2022-09-09T02:30:49;100629.16;;;13.76;88.92
57990;BME280;58373;51.824;5.564;2022-09-09T02:33:23;100631.41;;;13.71;89.28
57990;BME280;58373;51.824;5.564;2022-09-09T02:35:50;100620.44;;;13.68;89.00
57990;BME280;58373;51.824;5.564;2022-09-09T02:38:17;100624.22;;;13.73;89.00
57990;BME280;58373;51.824;5.564;2022-09-09T02:40:43;100626.31;;;13.52;89.34
57990;BME280;58373;51.824;5.564;2022-09-09T02:43:08;100598.25;;;13.46;89.76
57990;BME280;58373;51.824;5.564;2022-09-09T02:45:57;100621.56;;;13.65;90.40
57990;BME280;58373;51.824;5.564;2022-09-09T02:48:34;100620.22;;;13.61;90.11
57990;BME280;58373;51.824;5.564;2022-09-09T02:51:26;100603.25;;;13.57;89.42
57990;BME280;58373;51.824;5.564;2022-09-09T02:54:27;100609.97;;;13.60;89.07
57990;BME280;58373;51.824;5.564;2022-09-09T02:56:52;100623.94;;;13.59;89.17
57990;BME280;58373;51.824;5.564;2022-09-09T02:59:21;100630.28;;;13.56;89.00
57990;BME280;58373;51.824;5.564;2022-09-09T03:01:47;100636.16;;;13.58;89.78
57990;BME280;58373;51.824;5.564;2022-09-09T03:04:13;100644.94;;;13.57;89.76
57990;BME280;58373;51.824;5.564;2022-09-09T03:06:38;100633.16;;;13.53;89.65
57990;BME280;58373;51.824;5.564;2022-09-09T03:09:04;100643.31;;;13.56;89.67
57990;BME280;58373;51.824;5.564;2022-09-09T03:11:30;100634.00;;;13.53;89.56
57990;BME280;58373;51.824;5.564;2022-09-09T03:13:55;100622.31;;;13.40;89.97
57990;BME280;58373;51.824;5.564;2022-09-09T03:16:23;100639.22;;;13.53;89.61
57990;BME280;58373;51.824;5.564;2022-09-09T03:18:49;100637.72;;;13.51;90.16
57990;BME280;58373;51.824;5.564;2022-09-09T03:21:14;100629.91;;;13.51;89.97
57990;BME280;58373;51.824;5.564;2022-09-09T03:23:40;100635.09;;;13.51;90.14
57990;BME280;58373;51.824;5.564;2022-09-09T03:26:06;100620.06;;;13.45;90.62
57990;BME280;58373;51.824;5.564;2022-09-09T03:28:31;100627.59;;;13.48;90.55
57990;BME280;58373;51.824;5.564;2022-09-09T03:31:01;100623.34;;;13.47;90.88
57990;BME280;58373;51.824;5.564;2022-09-09T03:33:27;100634.88;;;13.44;91.14
57990;BME280;58373;51.824;5.564;2022-09-09T03:35:52;100631.97;;;13.47;90.93
57990;BME280;58373;51.824;5.564;2022-09-09T03:38:18;100628.25;;;13.50;91.21
57990;BME280;58373;51.824;5.564;2022-09-09T03:40:54;100636.75;;;13.52;91.71
57990;BME280;58373;51.824;5.564;2022-09-09T03:43:27;100631.84;;;13.49;91.58
57990;BME280;58373;51.824;5.564;2022-09-09T03:45:53;100636.16;;;13.58;90.89
57990;BME280;58373;51.824;5.564;2022-09-09T03:48:22;100633.16;;;13.53;90.90
57990;BME280;58373;51.824;5.564;2022-09-09T03:50:50;100639.06;;;13.55;91.84
57990;BME280;58373;51.824;5.564;2022-09-09T03:53:17;100625.00;;;13.48;91.44
57990;BME280;58373;51.824;5.564;2022-09-09T03:55:48;100632.34;;;13.52;91.70
57990;BME280;58373;51.824;5.564;2022-09-09T03:58:15;100633.69;;;13.57;92.09
57990;BME280;58373;51.824;5.564;2022-09-09T04:00:43;100634.50;;;13.57;91.80
57990;BME280;58373;51.824;5.564;2022-09-09T04:03:10;100630.94;;;13.58;91.52
57990;BME280;58373;51.824;5.564;2022-09-09T04:05:35;100617.91;;;13.58;91.93
57990;BME280;58373;51.824;5.564;2022-09-09T04:08:05;100621.78;;;13.54;92.83
57990;BME280;58373;51.824;5.564;2022-09-09T04:10:31;100615.63;;;13.55;93.06
57990;BME280;58373;51.824;5.564;2022-09-09T04:12:56;100606.81;;;13.56;92.57
57990;BME280;58373;51.824;5.564;2022-09-09T04:15:22;100616.81;;;13.61;92.22
57990;BME280;58373;51.824;5.564;2022-09-09T04:17:47;100610.91;;;13.59;92.76
57990;BME280;58373;51.824;5.564;2022-09-09T04:20:12;100612.78;;;13.66;92.55
57990;BME280;58373;51.824;5.564;2022-09-09T04:22:38;100609.19;;;13.67;92.19
57990;BME280;58373;51.824;5.564;2022-09-09T04:25:06;100606.28;;;13.70;92.35
57990;BME280;58373;51.824;5.564;2022-09-09T04:27:32;100602.03;;;13.69;92.39
57990;BME280;58373;51.824;5.564;2022-09-09T04:29:57;100597.44;;;13.63;92.40
57990;BME280;58373;51.824;5.564;2022-09-09T04:32:24;100614.94;;;13.71;92.73
57990;BME280;58373;51.824;5.564;2022-09-09T04:34:51;100600.25;;;13.70;92.67
57990;BME280;58373;51.824;5.564;2022-09-09T04:37:17;100603.16;;;13.67;93.27
57990;BME280;58373;51.824;5.564;2022-09-09T04:39:42;100587.00;;;13.63;93.03
57990;BME280;58373;51.824;5.564;2022-09-09T04:42:07;100602.72;;;13.71;93.58
57990;BME280;58373;51.824;5.564;2022-09-09T04:44:33;100596.44;;;13.64;93.35
57990;BME280;58373;51.824;5.564;2022-09-09T04:46:58;100585.00;;;13.57;93.91
57990;BME280;58373;51.824;5.564;2022-09-09T04:49:23;100603.97;;;13.67;93.38
57990;BME280;58373;51.824;5.564;2022-09-09T04:51:49;100602.03;;;13.69;93.26
57990;BME280;58373;51.824;5.564;2022-09-09T04:54:14;100580.47;;;13.59;93.71
57990;BME280;58373;51.824;5.564;2022-09-09T04:56:40;100597.97;;;13.67;93.74
57990;BME280;58373;51.824;5.564;2022-09-09T04:59:07;100595.19;;;13.68;93.68
57990;BME280;58373;51.824;5.564;2022-09-09T05:01:32;100587.00;;;13.63;93.83
57990;BME280;58373;51.824;5.564;2022-09-09T05:03:58;100600.56;;;13.67;94.14
57990;BME280;58373;51.824;5.564;2022-09-09T05:06:24;100590.59;;;13.62;94.05
57990;BME280;58373;51.824;5.564;2022-09-09T05:08:49;100598.78;;;13.67;93.97
57990;BME280;58373;51.824;5.564;2022-09-09T05:11:28;100605.63;;;13.68;94.62
57990;BME280;58373;51.824;5.564;2022-09-09T05:13:55;100588.94;;;13.61;94.53
57990;BME280;58373;51.824;5.564;2022-09-09T05:16:22;100583.44;;;13.64;93.84
57990;BME280;58373;51.824;5.564;2022-09-09T05:18:48;100589.97;;;13.68;94.26
57990;BME280;58373;51.824;5.564;2022-09-09T05:21:16;100596.81;;;13.69;94.41
57990;BME280;58373;51.824;5.564;2022-09-09T05:24:00;100591.63;;;13.69;94.55
57990;BME280;58373;51.824;5.564;2022-09-09T05:26:26;100580.97;;;13.63;94.39
57990;BME280;58373;51.824;5.564;2022-09-09T05:28:52;100588.34;;;13.67;94.79
57990;BME280;58373;51.824;5.564;2022-09-09T05:31:18;100575.97;;;13.69;94.41
57990;BME280;58373;51.824;5.564;2022-09-09T05:33:45;100582.81;;;13.70;94.86
57990;BME280;58373;51.824;5.564;2022-09-09T05:36:13;100584.47;;;13.71;94.92
57990;BME280;58373;51.824;5.564;2022-09-09T05:38:40;100579.75;;;13.75;94.78
57990;BME280;58373;51.824;5.564;2022-09-09T05:41:06;100584.16;;;13.74;94.96
57990;BME280;58373;51.824;5.564;2022-09-09T05:43:33;100574.06;;;13.71;95.02
57990;BME280;58373;51.824;5.564;2022-09-09T05:46:08;100573.44;;;13.77;94.75
57990;BME280;58373;51.824;5.564;2022-09-09T05:48:36;100573.75;;;13.74;95.06
57990;BME280;58373;51.824;5.564;2022-09-09T05:51:03;100573.13;;;13.80;95.13
57990;BME280;58373;51.824;5.564;2022-09-09T05:53:29;100571.50;;;13.79;95.00
57990;BME280;58373;51.824;5.564;2022-09-09T05:56:17;100576.06;;;13.77;95.74
57990;BME280;58373;51.824;5.564;2022-09-09T05:58:42;100590.28;;;13.83;95.33
57990;BME280;58373;51.824;5.564;2022-09-09T06:01:11;100591.25;;;13.82;95.17
57990;BME280;58373;51.824;5.564;2022-09-09T06:03:38;100595.16;;;13.86;95.60
57990;BME280;58373;51.824;5.564;2022-09-09T06:06:09;100596.94;;;13.86;95.42
57990;BME280;58373;51.824;5.564;2022-09-09T06:08:36;100596.59;;;13.80;95.84
57990;BME280;58373;51.824;5.564;2022-09-09T06:11:16;100602.97;;;13.86;95.60
57990;BME280;58373;51.824;5.564;2022-09-09T06:13:42;100607.91;;;13.89;95.46
57990;BME280;58373;51.824;5.564;2022-09-09T06:16:09;100602.09;;;13.95;96.00
57990;BME280;58373;51.824;5.564;2022-09-09T06:18:36;100604.53;;;13.97;95.86
57990;BME280;58373;51.824;5.564;2022-09-09T06:21:04;100596.06;;;13.95;95.99
57990;BME280;58373;51.824;5.564;2022-09-09T06:23:30;100600.66;;;14.01;95.74
57990;BME280;58373;51.824;5.564;2022-09-09T06:26:09;100599.84;;;14.00;96.21
57990;BME280;58373;51.824;5.564;2022-09-09T06:28:35;100590.88;;;14.03;95.77
57990;BME280;58373;51.824;5.564;2022-09-09T06:31:04;100604.25;;;14.00;96.22
57990;BME280;58373;51.824;5.564;2022-09-09T06:33:31;100587.78;;;13.99;96.23
57990;BME280;58373;51.824;5.564;2022-09-09T06:35:59;100596.78;;;14.05;96.36
57990;BME280;58373;51.824;5.564;2022-09-09T06:38:25;100586.34;;;14.05;96.13
57990;BME280;58373;51.824;5.564;2022-09-09T06:40:52;100598.25;;;14.07;96.63
57990;BME280;58373;51.824;5.564;2022-09-09T06:43:19;100596.66;;;14.15;96.66
57990;BME280;58373;51.824;5.564;2022-09-09T06:45:59;100580.19;;;14.14;96.59
57990;BME280;58373;51.824;5.564;2022-09-09T06:48:25;100589.72;;;14.23;96.35
57990;BME280;58373;51.824;5.564;2022-09-09T06:51:05;100584.50;;;14.23;96.39
57990;BME280;58373;51.824;5.564;2022-09-09T06:53:32;100593.97;;;14.32;95.99
57990;BME280;58373;51.824;5.564;2022-09-09T06:56:00;100581.63;;;14.34;96.06
57990;BME280;58373;51.824;5.564;2022-09-09T06:58:27;100582.31;;;14.45;95.87
57990;BME280;58373;51.824;5.564;2022-09-09T07:01:04;100597.41;;;14.51;96.13
57990;BME280;58373;51.824;5.564;2022-09-09T07:03:30;100585.00;;;14.53;95.70
57990;BME280;58373;51.824;5.564;2022-09-09T07:05:56;100583.38;;;14.52;95.12
57990;BME280;58373;51.824;5.564;2022-09-09T07:08:23;100589.25;;;14.62;95.27
57990;BME280;58373;51.824;5.564;2022-09-09T07:10:48;100576.56;;;14.67;95.22
57990;BME280;58373;51.824;5.564;2022-09-09T07:13:14;100570.38;;;14.68;94.72
57990;BME280;58373;51.824;5.564;2022-09-09T07:15:41;100572.66;;;14.79;94.89
57990;BME280;58373;51.824;5.564;2022-09-09T07:18:06;100572.72;;;14.87;94.34
57990;BME280;58373;51.824;5.564;2022-09-09T07:20:32;100582.53;;;14.94;93.58
57990;BME280;58373;51.824;5.564;2022-09-09T07:22:57;100576.00;;;14.98;93.54
57990;BME280;58373;51.824;5.564;2022-09-09T07:25:24;100581.25;;;15.06;93.43
57990;BME280;58373;51.824;5.564;2022-09-09T07:27:51;100574.56;;;15.11;93.68
57990;BME280;58373;51.824;5.564;2022-09-09T07:30:17;100581.91;;;15.16;93.04
57990;BME280;58373;51.824;5.564;2022-09-09T07:32:44;100584.88;;;15.21;92.56
57990;BME280;58373;51.824;5.564;2022-09-09T07:35:10;100589.44;;;15.27;92.58
57990;BME280;58373;51.824;5.564;2022-09-09T07:37:36;100590.78;;;15.31;92.95
57990;BME280;58373;51.824;5.564;2022-09-09T07:40:03;100590.13;;;15.37;91.69
57990;BME280;58373;51.824;5.564;2022-09-09T07:42:28;100588.31;;;15.38;91.40
57990;BME280;58373;51.824;5.564;2022-09-09T07:44:54;100594.53;;;15.37;90.07
57990;BME280;58373;51.824;5.564;2022-09-09T07:47:20;100598.91;;;15.36;90.05
57990;BME280;58373;51.824;5.564;2022-09-09T07:49:46;100594.19;;;15.40;89.83
57990;BME280;58373;51.824;5.564;2022-09-09T07:52:11;100596.63;;;15.41;89.68
57990;BME280;58373;51.824;5.564;2022-09-09T07:54:37;100595.69;;;15.43;89.46
57990;BME280;58373;51.824;5.564;2022-09-09T07:57:03;100607.59;;;15.45;88.70
57990;BME280;58373;51.824;5.564;2022-09-09T07:59:29;100590.13;;;15.46;88.85
57990;BME280;58373;51.824;5.564;2022-09-09T08:01:55;100586.50;;;15.47;88.29
57990;BME280;58373;51.824;5.564;2022-09-09T08:04:22;100592.41;;;15.49;88.03
57990;BME280;58373;51.824;5.564;2022-09-09T08:06:50;100589.94;;;15.47;87.36
57990;BME280;58373;51.824;5.564;2022-09-09T08:09:18;100587.19;;;15.49;87.27
57990;BME280;58373;51.824;5.564;2022-09-09T08:11:44;100602.22;;;15.55;88.03
57990;BME280;58373;51.824;5.564;2022-09-09T08:14:11;100593.41;;;15.56;87.84
57990;BME280;58373;51.824;5.564;2022-09-09T08:16:40;100601.22;;;15.56;87.49
57990;BME280;58373;51.824;5.564;2022-09-09T08:19:05;100602.56;;;15.60;87.51
57990;BME280;58373;51.824;5.564;2022-09-09T08:21:33;100607.31;;;15.64;86.46
57990;BME280;58373;51.824;5.564;2022-09-09T08:24:00;100603.88;;;15.64;86.81
57990;BME280;58373;51.824;5.564;2022-09-09T08:26:31;100604.53;;;15.66;86.06
57990;BME280;58373;51.824;5.564;2022-09-09T08:28:59;100598.97;;;15.69;86.89
57990;BME280;58373;51.824;5.564;2022-09-09T08:31:27;100608.13;;;15.73;86.41
57990;BME280;58373;51.824;5.564;2022-09-09T08:33:54;100606.50;;;15.72;85.95
57990;BME280;58373;51.824;5.564;2022-09-09T08:36:22;100610.91;;;15.80;85.13
57990;BME280;58373;51.824;5.564;2022-09-09T08:38:52;100612.34;;;15.82;85.20
57990;BME280;58373;51.824;5.564;2022-09-09T08:52:31;100618.22;;;16.09;83.02
57990;BME280;58373;51.824;5.564;2022-09-09T08:57:48;100618.88;;;16.11;84.03
57990;BME280;58373;51.824;5.564;2022-09-09T09:00:15;100629.84;;;16.06;82.39
57990;BME280;58373;51.824;5.564;2022-09-09T09:08:38;100620.03;;;16.08;83.53
57990;BME280;58373;51.824;5.564;2022-09-09T09:11:08;100617.59;;;16.07;82.95
57990;BME280;58373;51.824;5.564;2022-09-09T09:16:38;100626.72;;;16.19;83.32
57990;BME280;58373;51.824;5.564;2022-09-09T09:19:04;100629.34;;;16.19;82.48
57990;BME280;58373;51.824;5.564;2022-09-09T09:21:43;100640.44;;;16.29;82.83
57990;BME280;58373;51.824;5.564;2022-09-09T09:24:24;100631.94;;;16.27;82.75
57990;BME280;58373;51.824;5.564;2022-09-09T09:26:52;100632.25;;;16.32;82.27
57990;BME280;58373;51.824;5.564;2022-09-09T09:29:19;100629.94;;;16.37;82.67
57990;BME280;58373;51.824;5.564;2022-09-09T09:31:52;100646.66;;;16.36;82.16
57990;BME280;58373;51.824;5.564;2022-09-09T09:34:20;100622.13;;;16.29;81.71
57990;BME280;58373;51.824;5.564;2022-09-09T09:36:56;100644.03;;;16.36;82.19
57990;BME280;58373;51.824;5.564;2022-09-09T09:41:49;100628.63;;;16.33;81.38
57990;BME280;58373;51.824;5.564;2022-09-09T09:44:27;100639.78;;;16.35;81.04
57990;BME280;58373;51.824;5.564;2022-09-09T09:47:08;100636.00;;;16.38;81.38
57990;BME280;58373;51.824;5.564;2022-09-09T09:49:36;100629.94;;;16.37;80.96
57990;BME280;58373;51.824;5.564;2022-09-09T09:52:03;100634.69;;;16.34;80.85
57990;BME280;58373;51.824;5.564;2022-09-09T09:54:32;100630.25;;;16.34;80.69
57990;BME280;58373;51.824;5.564;2022-09-09T09:57:09;100640.75;;;16.34;81.44
57990;BME280;58373;51.824;5.564;2022-09-09T09:59:36;100629.94;;;16.37;81.37
57990;BME280;58373;51.824;5.564;2022-09-09T10:02:13;100631.13;;;16.35;80.82
57990;BME280;58373;51.824;5.564;2022-09-09T10:04:39;100630.63;;;16.31;81.11
57990;BME280;58373;51.824;5.564;2022-09-09T10:07:22;100619.34;;;16.31;81.32
57990;BME280;58373;51.824;5.564;2022-09-09T10:09:55;100639.25;;;16.40;80.57
57990;BME280;58373;51.824;5.564;2022-09-09T10:12:30;100632.75;;;16.36;82.61
57990;BME280;58373;51.824;5.564;2022-09-09T10:15:38;100640.41;;;16.37;83.05
57990;BME280;58373;51.824;5.564;2022-09-09T10:30:29;100644.03;;;16.28;83.65
57990;BME280;58373;51.824;5.564;2022-09-09T10:33:07;100654.34;;;16.30;83.94
57990;BME280;58373;51.824;5.564;2022-09-09T10:41:13;100654.84;;;16.17;85.88
57990;BME280;58373;51.824;5.564;2022-09-09T10:46:23;100650.59;;;16.16;87.69
57990;BME280;58373;51.824;5.564;2022-09-09T10:57:31;100650.78;;;15.90;89.43
57990;BME280;58373;51.824;5.564;2022-09-09T11:00:04;100643.09;;;15.80;89.68
57990;BME280;58373;51.824;5.564;2022-09-09T11:02:33;100644.72;;;15.81;90.72
57990;BME280;58373;51.824;5.564;2022-09-09T11:05:14;100645.69;;;15.88;91.77
57990;BME280;58373;51.824;5.564;2022-09-09T11:10:46;100651.88;;;16.28;94.15
57990;BME280;58373;51.824;5.564;2022-09-09T11:13:19;100639.78;;;16.27;92.71
57990;BME280;58373;51.824;5.564;2022-09-09T11:15:49;100640.13;;;16.24;91.00
57990;BME280;58373;51.824;5.564;2022-09-09T11:18:22;100648.44;;;16.28;91.16
57990;BME280;58373;51.824;5.564;2022-09-09T11:20:51;100642.56;;;16.26;91.69
57990;BME280;58373;51.824;5.564;2022-09-09T11:23:27;100641.41;;;16.28;90.84
57990;BME280;58373;51.824;5.564;2022-09-09T11:25:59;100643.06;;;16.29;90.10
57990;BME280;58373;51.824;5.564;2022-09-09T11:36:59;100632.25;;;16.32;88.82
57990;BME280;58373;51.824;5.564;2022-09-09T11:42:17;100630.94;;;16.36;88.65
57990;BME280;58373;51.824;5.564;2022-09-09T11:44:43;100638.75;;;16.44;88.00
57990;BME280;58373;51.824;5.564;2022-09-09T11:47:30;100627.97;;;16.39;88.97
57990;BME280;58373;51.824;5.564;2022-09-09T11:52:47;100632.53;;;16.45;88.31
57990;BME280;58373;51.824;5.564;2022-09-09T11:55:33;100634.81;;;16.49;87.80
57990;BME280;58373;51.824;5.564;2022-09-09T11:58:01;100629.91;;;16.45;87.71
57990;BME280;58373;51.824;5.564;2022-09-09T12:00:44;100636.13;;;16.44;89.41
57990;BME280;58373;51.824;5.564;2022-09-09T12:06:32;100627.66;;;16.42;89.39
57990;BME280;58373;51.824;5.564;2022-09-09T12:09:07;100635.31;;;16.44;90.83
57990;BME280;58373;51.824;5.564;2022-09-09T12:11:33;100616.00;;;16.45;90.52
57990;BME280;58373;51.824;5.564;2022-09-09T12:14:00;100630.22;;;16.51;90.24
57990;BME280;58373;51.824;5.564;2022-09-09T12:16:37;100626.66;;;16.52;89.84
57990;BME280;58373;51.824;5.564;2022-09-09T12:19:15;100631.53;;;16.55;89.69
57990;BME280;58373;51.824;5.564;2022-09-09T12:24:33;100622.22;;;16.52;88.40
57990;BME280;58373;51.824;5.564;2022-09-09T12:27:17;100628.28;;;16.53;89.46
57990;BME280;58373;51.824;5.564;2022-09-09T12:29:53;100630.53;;;16.56;88.73
57990;BME280;58373;51.824;5.564;2022-09-09T12:32:24;100626.97;;;16.49;87.78
57990;BME280;58373;51.824;5.564;2022-09-09T12:34:55;100625.34;;;16.48;87.18
57990;BME280;58373;51.824;5.564;2022-09-09T12:37:48;100614.88;;;16.48;86.60
57990;BME280;58373;51.824;5.564;2022-09-09T12:40:32;100634.34;;;16.53;87.65
57990;BME280;58373;51.824;5.564;2022-09-09T12:43:01;100623.03;;;16.53;87.33
57990;BME280;58373;51.824;5.564;2022-09-09T12:45:31;100625.63;;;16.61;87.46
57990;BME280;58373;51.824;5.564;2022-09-09T12:48:06;100623.31;;;16.66;87.58
57990;BME280;58373;51.824;5.564;2022-09-09T12:50:36;100615.13;;;16.69;87.03
57990;BME280;58373;51.824;5.564;2022-09-09T12:55:54;100606.63;;;16.75;86.11
57990;BME280;58373;51.824;5.564;2022-09-09T12:58:21;100609.88;;;16.77;86.38
57990;BME280;58373;51.824;5.564;2022-09-09T13:00:55;100610.50;;;16.87;86.25
57990;BME280;58373;51.824;5.564;2022-09-09T13:03:23;100610.50;;;16.87;85.75
57990;BME280;58373;51.824;5.564;2022-09-09T13:05:50;100607.50;;;16.90;85.31
57990;BME280;58373;51.824;5.564;2022-09-09T13:08:16;100607.50;;;16.98;85.59
57990;BME280;58373;51.824;5.564;2022-09-09T13:13:29;100609.41;;;17.05;84.10
57990;BME280;58373;51.824;5.564;2022-09-09T13:15:58;100599.94;;;17.04;83.44
57990;BME280;58373;51.824;5.564;2022-09-09T13:18:30;100606.44;;;17.08;84.37
57990;BME280;58373;51.824;5.564;2022-09-09T13:20:57;100608.06;;;17.09;83.69
57990;BME280;58373;51.824;5.564;2022-09-09T13:23:34;100599.25;;;17.10;82.53
57990;BME280;58373;51.824;5.564;2022-09-09T13:26:02;100600.38;;;17.07;81.49
57990;BME280;58373;51.824;5.564;2022-09-09T13:28:30;100609.72;;;17.10;81.63
57990;BME280;58373;51.824;5.564;2022-09-09T13:35:56;100608.66;;;17.19;81.64
57990;BME280;58373;51.824;5.564;2022-09-09T13:38:23;100607.03;;;17.18;81.91
57990;BME280;58373;51.824;5.564;2022-09-09T13:41:01;100606.69;;;17.21;81.89
57990;BME280;58373;51.824;5.564;2022-09-09T13:43:31;100600.16;;;17.17;80.60
57990;BME280;58373;51.824;5.564;2022-09-09T13:46:05;100597.53;;;17.17;81.07
57990;BME280;58373;51.824;5.564;2022-09-09T13:51:43;100598.53;;;17.16;81.21
57990;BME280;58373;51.824;5.564;2022-09-09T13:54:14;100595.41;;;17.20;81.44
57990;BME280;58373;51.824;5.564;2022-09-09T13:56:41;100596.84;;;17.23;81.57
57990;BME280;58373;51.824;5.564;2022-09-09T13:59:14;100596.44;;;17.34;81.76
57990;BME280;58373;51.824;5.564;2022-09-09T14:01:40;100601.00;;;17.40;80.87
57990;BME280;58373;51.824;5.564;2022-09-09T14:04:06;100599.38;;;17.39;81.12
57990;BME280;58373;51.824;5.564;2022-09-09T14:06:33;100594.75;;;17.41;82.03
57990;BME280;58373;51.824;5.564;2022-09-09T14:09:00;100598.66;;;17.45;81.62
57990;BME280;58373;51.824;5.564;2022-09-09T14:11:25;100589.81;;;17.46;81.13
57990;BME280;58373;51.824;5.564;2022-09-09T14:13:51;100587.81;;;17.48;81.55
57990;BME280;58373;51.824;5.564;2022-09-09T14:16:17;100580.66;;;17.42;81.36
57990;BME280;58373;51.824;5.564;2022-09-09T14:18:43;100581.13;;;17.46;81.65
57990;BME280;58373;51.824;5.564;2022-09-09T14:21:10;100587.09;;;17.55;80.52
57990;BME280;58373;51.824;5.564;2022-09-09T14:23:36;100588.69;;;17.64;80.99
57990;BME280;58373;51.824;5.564;2022-09-09T14:26:04;100580.91;;;17.70;80.59
57990;BME280;58373;51.824;5.564;2022-09-09T14:28:29;100587.94;;;17.78;80.12
57990;BME280;58373;51.824;5.564;2022-09-09T14:30:55;100583.94;;;17.82;80.14
57990;BME280;58373;51.824;5.564;2022-09-09T14:33:20;100584.31;;;17.79;79.09
57990;BME280;58373;51.824;5.564;2022-09-09T14:35:46;100588.56;;;17.80;79.06
57990;BME280;58373;51.824;5.564;2022-09-09T14:38:12;100595.16;;;17.76;79.24
57990;BME280;58373;51.824;5.564;2022-09-09T14:40:38;100592.22;;;17.71;79.54
57990;BME280;58373;51.824;5.564;2022-09-09T14:43:04;100572.59;;;17.67;79.73
57990;BME280;58373;51.824;5.564;2022-09-09T14:45:31;100572.22;;;17.70;80.95
57990;BME280;58373;51.824;5.564;2022-09-09T14:47:56;100574.53;;;17.73;81.57
57990;BME280;58373;51.824;5.564;2022-09-09T14:50:23;100583.84;;;17.75;81.50
57990;BME280;58373;51.824;5.564;2022-09-09T14:52:48;100562.41;;;17.72;80.11
57990;BME280;58373;51.824;5.564;2022-09-09T14:55:14;100574.53;;;17.73;79.97
57990;BME280;58373;51.824;5.564;2022-09-09T14:57:40;100570.91;;;17.74;79.04
57990;BME280;58373;51.824;5.564;2022-09-09T15:00:07;100569.28;;;17.73;78.80
57990;BME280;58373;51.824;5.564;2022-09-09T15:02:33;100570.22;;;17.80;79.31
57990;BME280;58373;51.824;5.564;2022-09-09T15:04:58;100554.47;;;17.80;79.43
57990;BME280;58373;51.824;5.564;2022-09-09T15:07:24;100559.00;;;17.86;79.46
57990;BME280;58373;51.824;5.564;2022-09-09T15:09:50;100552.94;;;18.00;78.98
57990;BME280;58373;51.824;5.564;2022-09-09T15:12:16;100560.47;;;18.03;77.78